createdAt,value
2018-08-16T00:00:17.899Z,18.25
2018-08-16T00:02:10.713Z,18.15
2018-08-16T00:03:10.675Z,18.20
2018-08-16T00:05:03.475Z,18.20
2018-08-16T00:06:03.458Z,18.18
2018-08-16T00:07:56.273Z,18.16
2018-08-16T00:08:56.214Z,18.13
2018-08-16T00:10:49.034Z,18.19
2018-08-16T00:11:48.999Z,18.13
2018-08-16T00:13:41.829Z,18.15
2018-08-16T00:14:41.775Z,18.07
2018-08-16T00:16:34.603Z,18.05
2018-08-16T00:17:34.552Z,18.10
2018-08-16T00:19:27.426Z,18.11
2018-08-16T00:20:27.329Z,18.05
2018-08-16T00:22:20.159Z,18.13
2018-08-16T00:23:20.104Z,18.11
2018-08-16T00:25:12.920Z,17.94
2018-08-16T00:26:12.880Z,17.98
2018-08-16T00:28:05.709Z,17.97
2018-08-16T00:29:05.664Z,17.97
2018-08-16T00:30:58.476Z,17.97
2018-08-16T00:31:58.442Z,17.98
2018-08-16T00:33:51.271Z,17.94
2018-08-16T00:34:51.224Z,17.90
2018-08-16T00:36:44.039Z,17.89
2018-08-16T00:37:44.011Z,17.85
2018-08-16T00:39:36.820Z,17.90
2018-08-16T00:40:36.770Z,17.83
2018-08-16T00:42:29.600Z,17.83
2018-08-16T00:43:29.555Z,17.82
2018-08-16T00:45:22.394Z,17.83
2018-08-16T00:46:22.326Z,17.82
2018-08-16T00:48:15.171Z,17.76
2018-08-16T00:49:15.126Z,17.74
2018-08-16T00:51:07.915Z,17.78
2018-08-16T00:52:07.885Z,17.71
2018-08-16T00:54:00.712Z,17.71
2018-08-16T00:55:00.662Z,17.68
2018-08-16T00:56:53.495Z,17.68
2018-08-16T00:57:53.437Z,17.63
2018-08-16T00:59:46.265Z,17.65
2018-08-16T01:00:46.226Z,17.59
2018-08-16T01:02:39.041Z,17.60
2018-08-16T01:03:38.992Z,17.54
2018-08-16T01:05:31.826Z,17.49
2018-08-16T01:06:31.778Z,17.49
2018-08-16T01:08:24.625Z,17.48
2018-08-16T01:09:24.547Z,17.42
2018-08-16T01:11:17.371Z,17.49
2018-08-16T01:12:17.333Z,17.46
2018-08-16T01:14:10.141Z,17.41
2018-08-16T01:15:10.115Z,17.36
2018-08-16T01:17:02.921Z,17.34
2018-08-16T01:18:02.881Z,17.42
2018-08-16T01:19:55.698Z,17.39
2018-08-16T01:20:55.668Z,17.34
2018-08-16T01:22:48.469Z,17.27
2018-08-16T01:23:48.435Z,17.24
2018-08-16T01:25:41.254Z,17.24
2018-08-16T01:26:41.203Z,17.27
2018-08-16T01:28:34.031Z,17.20
2018-08-16T01:29:33.991Z,17.16
2018-08-16T01:31:26.824Z,17.14
2018-08-16T01:32:26.762Z,17.05
2018-08-16T01:34:19.703Z,17.14
2018-08-16T01:35:19.536Z,17.02
2018-08-16T01:37:12.367Z,17.04
2018-08-16T01:38:12.322Z,17.01
2018-08-16T01:40:05.150Z,16.91
2018-08-16T01:41:05.108Z,16.89
2018-08-16T01:42:57.914Z,16.99
2018-08-16T01:43:57.908Z,16.87
2018-08-16T01:45:50.713Z,16.87
2018-08-16T01:46:50.664Z,16.83
2018-08-16T01:48:43.468Z,16.78
2018-08-16T01:49:43.433Z,16.79
2018-08-16T01:51:36.258Z,16.69
2018-08-16T01:52:36.214Z,16.75
2018-08-16T01:54:29.012Z,16.74
2018-08-16T01:55:28.978Z,16.71
2018-08-16T01:57:21.822Z,16.74
2018-08-16T01:58:21.753Z,16.68
2018-08-16T02:00:14.566Z,16.61
2018-08-16T02:01:14.543Z,16.61
2018-08-16T02:03:07.364Z,16.57
2018-08-16T02:04:07.308Z,16.53
2018-08-16T02:06:00.129Z,16.53
2018-08-16T02:07:00.084Z,16.53
2018-08-16T02:08:52.900Z,16.51
2018-08-16T02:09:52.861Z,16.46
2018-08-16T02:11:45.699Z,16.46
2018-08-16T02:12:45.640Z,16.47
2018-08-16T02:14:38.458Z,16.46
2018-08-16T02:15:38.414Z,16.39
2018-08-16T02:17:31.234Z,16.43
2018-08-16T02:18:31.185Z,16.39
2018-08-16T02:20:23.993Z,16.38
2018-08-16T02:21:23.964Z,16.33
2018-08-16T02:23:16.800Z,16.26
2018-08-16T02:24:16.731Z,16.32
2018-08-16T02:26:09.564Z,16.29
2018-08-16T02:27:09.530Z,16.28
2018-08-16T02:29:03.312Z,16.31
2018-08-16T02:30:03.290Z,16.35
2018-08-16T02:31:56.106Z,16.29
2018-08-16T02:32:56.054Z,16.35
2018-08-16T02:34:48.872Z,16.38
2018-08-16T02:35:48.832Z,16.29
2018-08-16T02:37:41.656Z,16.35
2018-08-16T02:38:41.611Z,16.32
2018-08-16T02:40:34.440Z,16.32
2018-08-16T02:41:34.404Z,16.32
2018-08-16T02:43:27.210Z,16.29
2018-08-16T02:44:27.174Z,16.31
2018-08-16T02:46:19.976Z,16.31
2018-08-16T02:47:19.932Z,16.32
2018-08-16T02:49:12.763Z,16.29
2018-08-16T02:50:12.717Z,16.28
2018-08-16T02:52:05.547Z,16.29
2018-08-16T02:53:05.505Z,16.28
2018-08-16T02:54:58.329Z,16.32
2018-08-16T02:55:58.277Z,16.32
2018-08-16T02:57:51.075Z,16.32
2018-08-16T02:58:51.051Z,16.28
2018-08-16T03:00:43.868Z,16.32
2018-08-16T03:01:43.817Z,16.36
2018-08-16T03:03:36.644Z,16.26
2018-08-16T03:04:36.591Z,16.23
2018-08-16T03:06:29.392Z,16.23
2018-08-16T03:07:29.361Z,16.32
2018-08-16T03:09:22.178Z,16.31
2018-08-16T03:10:22.143Z,16.36
2018-08-16T03:12:14.962Z,16.31
2018-08-16T03:13:14.921Z,16.26
2018-08-16T03:15:07.745Z,16.26
2018-08-16T03:16:07.706Z,16.28
2018-08-16T03:18:00.533Z,16.31
2018-08-16T03:19:00.478Z,16.29
2018-08-16T03:20:53.291Z,16.31
2018-08-16T03:21:53.246Z,16.33
2018-08-16T03:23:46.074Z,16.29
2018-08-16T03:24:46.026Z,16.28
2018-08-16T03:26:38.832Z,16.35
2018-08-16T03:27:38.797Z,16.31
2018-08-16T03:29:31.627Z,16.29
2018-08-16T03:30:31.577Z,16.23
2018-08-16T03:32:24.427Z,16.28
2018-08-16T03:33:24.355Z,16.16
2018-08-16T03:35:17.231Z,16.28
2018-08-16T03:36:17.130Z,16.26
2018-08-16T03:38:09.962Z,16.31
2018-08-16T03:39:09.912Z,16.13
2018-08-16T03:41:02.713Z,16.12
2018-08-16T03:42:02.674Z,16.17
2018-08-16T03:43:55.502Z,16.28
2018-08-16T03:44:55.477Z,16.13
2018-08-16T03:46:48.281Z,16.23
2018-08-16T03:47:48.242Z,16.20
2018-08-16T03:49:41.065Z,16.20
2018-08-16T03:50:41.015Z,16.17
2018-08-16T03:52:33.847Z,16.15
2018-08-16T03:53:33.793Z,16.16
2018-08-16T03:55:26.618Z,16.12
2018-08-16T03:56:26.568Z,16.13
2018-08-16T03:58:19.392Z,16.09
2018-08-16T03:59:19.348Z,16.12
2018-08-16T04:01:12.153Z,16.08
2018-08-16T04:02:12.124Z,16.08
2018-08-16T04:04:04.947Z,16.09
2018-08-16T04:05:04.893Z,16.02
2018-08-16T04:06:57.712Z,16.04
2018-08-16T04:07:57.668Z,16.05
2018-08-16T04:09:50.502Z,15.98
2018-08-16T04:10:50.467Z,16.08
2018-08-16T04:12:43.262Z,16.02
2018-08-16T04:13:43.222Z,16.01
2018-08-16T04:15:36.057Z,16.01
2018-08-16T04:16:35.995Z,16.00
2018-08-16T04:18:28.823Z,16.01
2018-08-16T04:19:28.769Z,15.92
2018-08-16T04:21:21.574Z,16.02
2018-08-16T04:22:21.549Z,15.95
2018-08-16T04:24:14.364Z,16.02
2018-08-16T04:25:14.311Z,15.90
2018-08-16T04:27:07.124Z,15.91
2018-08-16T04:28:07.085Z,15.94
2018-08-16T04:29:59.916Z,15.94
2018-08-16T04:30:59.875Z,15.86
2018-08-16T04:32:52.677Z,15.86
2018-08-16T04:33:52.642Z,15.82
2018-08-16T04:35:45.466Z,15.79
2018-08-16T04:36:45.418Z,15.86
2018-08-16T04:38:38.234Z,15.73
2018-08-16T04:39:38.195Z,15.77
2018-08-16T04:41:31.068Z,15.76
2018-08-16T04:42:30.972Z,15.70
2018-08-16T04:44:23.771Z,15.76
2018-08-16T04:45:23.736Z,15.84
2018-08-16T04:47:16.568Z,15.82
2018-08-16T04:48:16.510Z,15.76
2018-08-16T04:50:09.335Z,15.76
2018-08-16T04:51:09.289Z,15.75
2018-08-16T04:53:02.106Z,15.80
2018-08-16T04:54:02.063Z,15.80
2018-08-16T04:55:54.891Z,15.73
2018-08-16T04:56:54.924Z,15.75
2018-08-16T04:58:47.654Z,15.82
2018-08-16T04:59:47.609Z,15.83
2018-08-16T05:01:40.439Z,15.83
2018-08-16T05:02:40.397Z,15.92
2018-08-16T05:04:33.195Z,15.91
2018-08-16T05:05:33.174Z,15.84
2018-08-16T05:07:25.975Z,15.95
2018-08-16T05:08:25.930Z,15.91
2018-08-16T05:10:18.741Z,15.94
2018-08-16T05:11:18.709Z,15.92
2018-08-16T05:13:12.394Z,15.90
2018-08-16T05:14:12.332Z,15.95
2018-08-16T05:16:05.135Z,15.91
2018-08-16T05:17:05.095Z,15.92
2018-08-16T05:18:57.921Z,15.95
2018-08-16T05:19:57.882Z,15.91
2018-08-16T05:21:50.707Z,16.01
2018-08-16T05:22:50.651Z,16.00
2018-08-16T05:24:43.465Z,15.95
2018-08-16T05:25:43.437Z,16.02
2018-08-16T05:27:36.257Z,15.97
2018-08-16T05:28:36.213Z,15.95
2018-08-16T05:30:29.018Z,16.02
2018-08-16T05:31:29.018Z,16.09
2018-08-16T05:33:21.801Z,16.09
2018-08-16T05:34:21.767Z,16.10
2018-08-16T05:36:14.582Z,16.12
2018-08-16T05:37:14.543Z,16.05
2018-08-16T05:39:07.345Z,16.13
2018-08-16T05:40:07.304Z,16.15
2018-08-16T05:42:01.102Z,16.16
2018-08-16T05:43:01.078Z,16.15
2018-08-16T05:44:53.891Z,16.15
2018-08-16T05:45:53.848Z,16.13
2018-08-16T05:47:46.677Z,16.16
2018-08-16T05:48:46.623Z,16.16
2018-08-16T05:50:39.445Z,16.13
2018-08-16T05:51:39.398Z,16.29
2018-08-16T05:53:32.225Z,16.31
2018-08-16T05:54:32.168Z,16.32
2018-08-16T05:56:24.978Z,16.36
2018-08-16T05:57:24.944Z,16.29
2018-08-16T05:59:17.780Z,16.38
2018-08-16T06:00:17.847Z,16.38
2018-08-16T06:02:10.537Z,16.43
2018-08-16T06:03:10.488Z,16.46
2018-08-16T06:05:03.321Z,16.53
2018-08-16T06:06:03.264Z,16.58
2018-08-16T06:07:56.082Z,16.58
2018-08-16T06:08:56.043Z,16.68
2018-08-16T06:10:48.874Z,16.74
2018-08-16T06:11:48.826Z,16.76
2018-08-16T06:13:41.642Z,16.71
2018-08-16T06:14:41.592Z,16.83
2018-08-16T06:16:34.423Z,16.84
2018-08-16T06:17:34.379Z,16.89
2018-08-16T06:19:27.197Z,16.96
2018-08-16T06:20:27.148Z,17.01
2018-08-16T06:22:19.994Z,17.01
2018-08-16T06:23:19.953Z,17.02
2018-08-16T06:25:12.777Z,17.06
2018-08-16T06:26:12.729Z,17.12
2018-08-16T06:28:05.535Z,17.16
2018-08-16T06:29:05.503Z,17.24
2018-08-16T06:30:58.343Z,17.24
2018-08-16T06:31:58.269Z,17.36
2018-08-16T06:33:51.095Z,17.42
2018-08-16T06:34:51.060Z,17.38
2018-08-16T06:36:43.880Z,17.45
2018-08-16T06:37:43.831Z,17.45
2018-08-16T06:39:36.659Z,17.57
2018-08-16T06:40:36.613Z,17.48
2018-08-16T06:42:29.433Z,17.60
2018-08-16T06:43:29.393Z,17.67
2018-08-16T06:45:22.219Z,17.71
2018-08-16T06:46:22.180Z,17.74
2018-08-16T06:48:14.965Z,17.82
2018-08-16T06:49:14.939Z,17.82
2018-08-16T06:51:07.755Z,18.01
2018-08-16T06:52:07.719Z,17.95
2018-08-16T06:54:00.540Z,18.10
2018-08-16T06:55:00.500Z,18.07
2018-08-16T06:56:53.330Z,18.04
2018-08-16T06:57:53.289Z,18.16
2018-08-16T06:59:46.096Z,18.22
2018-08-16T07:00:46.068Z,18.37
2018-08-16T07:02:38.879Z,18.37
2018-08-16T07:03:38.844Z,18.43
2018-08-16T07:05:31.651Z,18.55
2018-08-16T07:06:31.615Z,18.59
2018-08-16T07:08:24.450Z,18.71
2018-08-16T07:09:24.400Z,18.78
2018-08-16T07:11:17.220Z,18.81
2018-08-16T07:12:17.346Z,18.88
2018-08-16T07:14:09.986Z,18.99
2018-08-16T07:15:09.961Z,18.98
2018-08-16T07:17:02.771Z,19.08
2018-08-16T07:18:02.727Z,19.09
2018-08-16T07:19:55.552Z,19.21
2018-08-16T07:20:55.526Z,19.27
2018-08-16T07:22:48.338Z,19.22
2018-08-16T07:23:48.296Z,19.27
2018-08-16T07:25:41.100Z,19.31
2018-08-16T07:26:41.077Z,19.44
2018-08-16T07:28:33.907Z,19.48
2018-08-16T07:29:33.857Z,19.58
2018-08-16T07:31:26.778Z,19.55
2018-08-16T07:32:26.636Z,19.66
2018-08-16T07:34:19.457Z,19.71
2018-08-16T07:35:19.398Z,19.77
2018-08-16T07:37:12.250Z,19.82
2018-08-16T07:38:12.190Z,19.91
2018-08-16T07:40:05.022Z,19.99
2018-08-16T07:41:04.981Z,20.09
2018-08-16T07:42:58.452Z,20.11
2018-08-16T07:43:57.756Z,20.06
2018-08-16T07:45:50.760Z,20.21
2018-08-16T07:46:50.535Z,20.34
2018-08-16T07:48:43.357Z,20.40
2018-08-16T07:49:43.391Z,20.41
2018-08-16T07:51:36.256Z,20.55
2018-08-16T07:52:36.091Z,20.58
2018-08-16T07:54:28.988Z,20.65
2018-08-16T07:55:28.888Z,20.77
2018-08-16T07:57:21.689Z,20.81
2018-08-16T07:58:21.662Z,20.75
2018-08-16T08:00:14.489Z,20.87
2018-08-16T08:01:14.447Z,21.03
2018-08-16T08:03:07.274Z,21.00
2018-08-16T08:04:07.227Z,21.07
2018-08-16T08:06:00.053Z,21.15
2018-08-16T08:07:00.019Z,21.22
2018-08-16T08:08:52.902Z,21.29
2018-08-16T08:09:52.905Z,21.33
2018-08-16T08:11:45.627Z,21.32
2018-08-16T08:12:45.582Z,21.40
2018-08-16T08:14:38.402Z,21.46
2018-08-16T08:15:38.374Z,21.52
2018-08-16T08:17:31.209Z,21.52
2018-08-16T08:18:31.158Z,21.58
2018-08-16T08:20:23.975Z,21.70
2018-08-16T08:21:23.945Z,21.70
2018-08-16T08:23:16.759Z,21.85
2018-08-16T08:24:16.725Z,21.88
2018-08-16T08:26:09.578Z,21.89
2018-08-16T08:27:09.504Z,22.04
2018-08-16T08:29:02.331Z,22.06
2018-08-16T08:30:02.310Z,22.07
2018-08-16T08:31:55.149Z,22.23
2018-08-16T08:32:55.099Z,22.23
2018-08-16T08:34:47.951Z,22.18
2018-08-16T08:35:47.881Z,22.23
2018-08-16T08:37:40.713Z,22.18
2018-08-16T08:38:40.687Z,22.18
2018-08-16T08:40:33.481Z,22.29
2018-08-16T08:41:33.449Z,22.38
2018-08-16T08:43:26.289Z,22.36
2018-08-16T08:44:26.245Z,22.41
2018-08-16T08:46:19.079Z,22.55
2018-08-16T08:47:19.033Z,22.53
2018-08-16T08:49:11.908Z,22.68
2018-08-16T08:50:11.870Z,22.69
2018-08-16T08:52:04.649Z,22.81
2018-08-16T08:53:04.605Z,22.83
2018-08-16T08:54:57.425Z,22.84
2018-08-16T08:55:57.392Z,22.96
2018-08-16T08:57:50.227Z,23.02
2018-08-16T08:58:50.198Z,23.02
2018-08-16T09:00:42.995Z,23.20
2018-08-16T09:01:42.975Z,23.18
2018-08-16T09:03:35.794Z,23.21
2018-08-16T09:04:35.755Z,23.15
2018-08-16T09:06:28.599Z,23.12
2018-08-16T09:07:28.545Z,23.17
2018-08-16T09:09:21.391Z,23.15
2018-08-16T09:10:21.337Z,23.08
2018-08-16T09:12:14.143Z,22.96
2018-08-16T09:13:14.110Z,22.99
2018-08-16T09:15:06.948Z,23.05
2018-08-16T09:16:06.901Z,23.03
2018-08-16T09:17:59.737Z,23.09
2018-08-16T09:18:59.697Z,23.15
2018-08-16T09:20:52.536Z,23.21
2018-08-16T09:21:52.482Z,23.25
2018-08-16T09:23:45.305Z,23.31
2018-08-16T09:24:45.268Z,23.37
2018-08-16T09:26:38.081Z,23.39
2018-08-16T09:27:38.056Z,23.36
2018-08-16T09:29:30.882Z,23.44
2018-08-16T09:30:30.842Z,23.48
2018-08-16T09:32:23.651Z,23.54
2018-08-16T09:33:23.627Z,23.62
2018-08-16T09:35:16.461Z,23.62
2018-08-16T09:36:16.412Z,23.63
2018-08-16T09:38:09.237Z,23.77
2018-08-16T09:39:09.200Z,23.86
2018-08-16T09:41:02.031Z,23.61
2018-08-16T09:42:01.994Z,23.81
2018-08-16T09:43:54.821Z,23.93
2018-08-16T09:44:54.772Z,24.02
2018-08-16T09:46:47.596Z,24.01
2018-08-16T09:47:47.557Z,24.06
2018-08-16T09:49:40.455Z,24.13
2018-08-16T09:50:40.357Z,24.14
2018-08-16T09:52:33.224Z,24.14
2018-08-16T09:53:33.197Z,24.14
2018-08-16T09:55:26.022Z,24.35
2018-08-16T09:56:25.989Z,24.48
2018-08-16T09:58:18.902Z,24.66
2018-08-16T09:59:18.774Z,24.73
2018-08-16T10:01:11.609Z,24.84
2018-08-16T10:02:11.591Z,24.92
2018-08-16T10:04:04.383Z,25.48
2018-08-16T10:05:04.362Z,25.95
2018-08-16T10:06:57.198Z,26.70
2018-08-16T10:07:57.158Z,26.93
2018-08-16T10:09:50.023Z,27.65
2018-08-16T10:10:49.954Z,27.96
2018-08-16T10:12:42.773Z,28.64
2018-08-16T10:13:42.747Z,29.10
2018-08-16T10:15:35.588Z,29.34
2018-08-16T10:16:35.547Z,29.34
2018-08-16T10:18:28.390Z,29.59
2018-08-16T10:19:28.354Z,30.03
2018-08-16T10:21:21.203Z,30.24
2018-08-16T10:22:21.168Z,30.63
2018-08-16T10:24:14.005Z,30.91
2018-08-16T10:25:13.979Z,30.84
2018-08-16T10:27:06.881Z,30.63
2018-08-16T10:28:06.785Z,30.72
2018-08-16T10:29:59.629Z,30.70
2018-08-16T10:30:59.594Z,30.87
2018-08-16T10:32:52.435Z,30.91
2018-08-16T10:33:52.398Z,30.87
2018-08-16T10:35:45.270Z,31.07
2018-08-16T10:36:45.220Z,31.37
2018-08-16T10:38:38.056Z,31.81
2018-08-16T10:39:38.025Z,31.59
2018-08-16T10:41:30.873Z,31.81
2018-08-16T10:42:30.835Z,32.08
2018-08-16T10:44:23.703Z,32.53
2018-08-16T10:45:23.659Z,32.74
2018-08-16T10:47:16.502Z,33.11
2018-08-16T10:48:16.470Z,33.01
2018-08-16T10:50:09.304Z,32.82
2018-08-16T10:51:09.280Z,32.92
2018-08-16T10:53:02.126Z,32.90
2018-08-16T10:54:02.088Z,32.55
2018-08-16T10:55:54.953Z,32.51
2018-08-16T10:56:54.902Z,32.48
2018-08-16T10:58:47.742Z,32.59
2018-08-16T10:59:47.721Z,32.34
2018-08-16T11:01:40.584Z,32.73
2018-08-16T11:02:40.544Z,32.73
2018-08-16T11:04:33.366Z,33.00
2018-08-16T11:05:33.344Z,32.90
2018-08-16T11:07:26.198Z,33.12
2018-08-16T11:08:26.176Z,33.27
2018-08-16T11:10:18.992Z,33.02
2018-08-16T11:11:18.965Z,33.17
2018-08-16T11:13:11.820Z,32.31
2018-08-16T11:14:11.776Z,32.30
2018-08-16T11:16:04.624Z,32.40
2018-08-16T11:17:04.602Z,32.49
2018-08-16T11:18:57.529Z,32.33
2018-08-16T11:19:57.423Z,32.74
2018-08-16T11:21:50.272Z,33.45
2018-08-16T11:22:50.228Z,33.67
2018-08-16T11:24:43.081Z,33.95
2018-08-16T11:25:43.061Z,34.14
2018-08-16T11:27:56.914Z,34.23
2018-08-16T11:28:35.890Z,33.80
2018-08-16T11:30:28.723Z,33.71
2018-08-16T11:31:28.715Z,33.76
2018-08-16T11:33:21.561Z,33.67
2018-08-16T11:34:21.532Z,33.94
2018-08-16T11:36:14.381Z,33.86
2018-08-16T11:37:14.351Z,33.62
2018-08-16T11:39:07.205Z,33.89
2018-08-16T11:40:07.167Z,33.84
2018-08-16T11:41:59.991Z,34.01
2018-08-16T11:42:59.977Z,34.17
2018-08-16T11:44:52.828Z,34.51
2018-08-16T11:45:52.801Z,34.66
2018-08-16T11:47:45.659Z,35.00
2018-08-16T11:48:45.613Z,35.02
2018-08-16T11:50:38.449Z,34.77
2018-08-16T11:51:38.422Z,34.54
2018-08-16T11:53:31.279Z,34.93
2018-08-16T11:54:31.242Z,34.88
2018-08-16T11:56:24.067Z,34.57
2018-08-16T11:57:24.052Z,34.74
2018-08-16T11:59:16.918Z,34.99
2018-08-16T12:00:16.878Z,35.14
2018-08-16T12:02:09.725Z,34.61
2018-08-16T12:03:09.691Z,34.80
2018-08-16T12:05:02.552Z,34.97
2018-08-16T12:06:02.514Z,35.02
2018-08-16T12:07:55.348Z,35.29
2018-08-16T12:08:55.313Z,35.23
2018-08-16T12:10:48.174Z,35.52
2018-08-16T12:11:48.134Z,35.55
2018-08-16T12:13:40.985Z,35.67
2018-08-16T12:14:40.974Z,35.64
2018-08-16T12:16:33.803Z,35.85
2018-08-16T12:17:33.769Z,35.60
2018-08-16T12:19:26.634Z,35.00
2018-08-16T12:20:26.599Z,35.37
2018-08-16T12:22:19.433Z,35.82
2018-08-16T12:23:19.427Z,36.01
2018-08-16T12:25:12.260Z,36.45
2018-08-16T12:26:12.222Z,36.52
2018-08-16T12:28:05.074Z,36.81
2018-08-16T12:29:05.084Z,36.67
2018-08-16T12:30:57.923Z,34.99
2018-08-16T12:31:57.878Z,35.02
2018-08-16T12:33:50.718Z,35.05
2018-08-16T12:34:50.739Z,34.89
2018-08-16T12:36:43.546Z,35.15
2018-08-16T12:37:43.520Z,34.99
2018-08-16T12:39:36.343Z,34.99
2018-08-16T12:40:36.377Z,34.74
2018-08-16T12:42:29.170Z,34.55
2018-08-16T12:43:29.153Z,34.55
2018-08-16T12:45:21.989Z,34.40
2018-08-16T12:46:21.995Z,34.81
2018-08-16T12:48:14.815Z,34.78
2018-08-16T12:49:14.790Z,34.48
2018-08-16T12:51:07.620Z,34.88
2018-08-16T12:52:07.594Z,35.24
2018-08-16T12:54:00.428Z,35.64
2018-08-16T12:55:00.406Z,35.78
2018-08-16T12:56:53.273Z,35.90
2018-08-16T12:57:53.235Z,35.93
2018-08-16T12:59:46.067Z,35.61
2018-08-16T13:00:46.054Z,35.46
2018-08-16T13:02:38.904Z,35.49
2018-08-16T13:03:38.864Z,35.48
2018-08-16T13:05:31.704Z,35.26
2018-08-16T13:06:31.680Z,35.41
2018-08-16T13:08:24.539Z,35.49
2018-08-16T13:09:24.501Z,35.60
2018-08-16T13:11:17.351Z,35.90
2018-08-16T13:12:17.316Z,35.97
2018-08-16T13:14:10.178Z,36.39
2018-08-16T13:15:10.135Z,36.35
2018-08-16T13:17:03.004Z,36.51
2018-08-16T13:18:02.961Z,36.31
2018-08-16T13:19:55.801Z,36.31
2018-08-16T13:20:55.760Z,36.42
2018-08-16T13:22:48.618Z,36.28
2018-08-16T13:23:48.585Z,36.09
2018-08-16T13:25:41.425Z,36.09
2018-08-16T13:26:41.406Z,36.09
2018-08-16T13:28:34.265Z,36.21
2018-08-16T13:29:34.226Z,36.39
2018-08-16T13:31:27.051Z,36.35
2018-08-16T13:32:27.037Z,36.20
2018-08-16T13:34:19.889Z,36.08
2018-08-16T13:35:19.852Z,35.85
2018-08-16T13:37:12.787Z,35.85
2018-08-16T13:38:12.686Z,35.79
2018-08-16T13:40:06.727Z,35.12
2018-08-16T13:41:05.495Z,35.33
2018-08-16T13:43:58.968Z,35.49
2018-08-16T13:45:51.442Z,35.70
2018-08-16T13:46:51.387Z,35.88
2018-08-16T13:48:44.259Z,36.01
2018-08-16T13:49:44.217Z,36.07
2018-08-16T13:51:37.058Z,35.33
2018-08-16T13:52:37.031Z,35.51
2018-08-16T13:54:29.881Z,35.97
2018-08-16T13:55:29.841Z,36.09
2018-08-16T13:57:22.678Z,36.01
2018-08-16T13:58:22.677Z,35.89
2018-08-16T14:00:15.538Z,36.28
2018-08-16T14:01:15.473Z,36.54
2018-08-16T14:03:08.308Z,36.54
2018-08-16T14:04:08.292Z,36.40
2018-08-16T14:06:01.144Z,36.14
2018-08-16T14:07:01.117Z,36.08
2018-08-16T14:08:53.957Z,36.17
2018-08-16T14:09:53.923Z,36.27
2018-08-16T14:11:46.772Z,35.85
2018-08-16T14:12:46.782Z,35.92
2018-08-16T14:14:39.573Z,36.37
2018-08-16T14:15:39.568Z,36.64
2018-08-16T14:17:32.415Z,36.74
2018-08-16T14:18:32.461Z,36.65
2018-08-16T14:20:25.221Z,36.36
2018-08-16T14:21:25.196Z,36.08
2018-08-16T14:23:18.040Z,35.89
2018-08-16T14:24:18.010Z,36.00
2018-08-16T14:26:10.925Z,35.80
2018-08-16T14:27:10.823Z,36.05
2018-08-16T14:29:03.686Z,36.00
2018-08-16T14:30:03.640Z,35.97
2018-08-16T14:31:56.499Z,36.12
2018-08-16T14:32:56.455Z,35.85
2018-08-16T14:34:49.290Z,35.92
2018-08-16T14:35:49.282Z,36.20
2018-08-16T14:37:42.125Z,35.93
2018-08-16T14:38:42.146Z,36.04
2018-08-16T14:40:34.925Z,36.09
2018-08-16T14:41:34.904Z,36.05
2018-08-16T14:43:27.778Z,36.05
2018-08-16T14:44:27.709Z,36.08
2018-08-16T14:46:20.574Z,36.39
2018-08-16T14:47:20.544Z,36.40
2018-08-16T14:49:13.398Z,36.47
2018-08-16T14:50:13.380Z,36.62
2018-08-16T14:52:06.205Z,36.98
2018-08-16T14:53:06.176Z,37.10
2018-08-16T14:54:59.039Z,36.58
2018-08-16T14:55:59.003Z,36.42
2018-08-16T14:57:51.847Z,36.31
2018-08-16T14:58:51.804Z,35.95
2018-08-16T15:00:44.649Z,35.58
2018-08-16T15:01:44.628Z,35.73
2018-08-16T15:03:37.486Z,35.88
2018-08-16T15:04:37.456Z,35.71
2018-08-16T15:06:30.295Z,35.97
2018-08-16T15:07:30.296Z,36.08
2018-08-16T15:09:23.129Z,36.39
2018-08-16T15:10:23.097Z,36.58
2018-08-16T15:12:15.935Z,36.72
2018-08-16T15:13:15.918Z,36.64
2018-08-16T15:15:08.748Z,36.17
2018-08-16T15:16:08.720Z,36.27
2018-08-16T15:18:01.564Z,36.21
2018-08-16T15:19:01.541Z,36.01
2018-08-16T15:20:54.387Z,35.86
2018-08-16T15:21:54.345Z,35.76
2018-08-16T15:23:47.195Z,35.60
2018-08-16T15:24:47.167Z,35.61
2018-08-16T15:26:40.006Z,35.36
2018-08-16T15:27:39.989Z,35.48
2018-08-16T15:29:32.896Z,35.22
2018-08-16T15:30:32.801Z,35.24
2018-08-16T15:32:25.678Z,35.17
2018-08-16T15:33:25.615Z,35.11
2018-08-16T15:35:18.457Z,35.14
2018-08-16T15:36:18.420Z,35.08
2018-08-16T15:38:12.269Z,34.95
2018-08-16T15:39:12.225Z,34.54
2018-08-16T15:41:05.139Z,34.50
2018-08-16T15:42:05.039Z,34.47
2018-08-16T15:43:57.882Z,33.79
2018-08-16T15:44:57.841Z,33.68
2018-08-16T15:46:50.695Z,33.69
2018-08-16T15:47:50.717Z,33.64
2018-08-16T15:49:43.527Z,33.84
2018-08-16T15:50:43.478Z,33.95
2018-08-16T15:52:36.291Z,34.29
2018-08-16T15:53:36.277Z,34.32
2018-08-16T15:55:29.127Z,34.43
2018-08-16T15:56:29.092Z,34.51
2018-08-16T15:58:21.923Z,34.30
2018-08-16T15:59:21.898Z,34.17
2018-08-16T16:01:14.747Z,34.08
2018-08-16T16:02:14.711Z,33.87
2018-08-16T16:04:07.548Z,33.94
2018-08-16T16:05:07.522Z,34.02
2018-08-16T16:07:00.367Z,34.08
2018-08-16T16:08:00.332Z,33.74
2018-08-16T16:09:53.163Z,33.39
2018-08-16T16:10:53.157Z,33.28
2018-08-16T16:12:45.989Z,33.17
2018-08-16T16:13:45.962Z,32.93
2018-08-16T16:15:38.787Z,32.83
2018-08-16T16:16:38.762Z,32.87
2018-08-16T16:18:31.611Z,33.11
2018-08-16T16:19:31.571Z,32.82
2018-08-16T16:21:24.407Z,32.71
2018-08-16T16:22:24.406Z,32.64
2018-08-16T16:24:17.239Z,32.68
2018-08-16T16:25:17.213Z,32.63
2018-08-16T16:27:10.047Z,32.56
2018-08-16T16:28:10.011Z,32.48
2018-08-16T16:30:02.837Z,32.65
2018-08-16T16:31:02.821Z,32.48
2018-08-16T16:32:55.758Z,32.48
2018-08-16T16:33:55.658Z,32.37
2018-08-16T16:35:48.468Z,32.34
2018-08-16T16:36:48.439Z,32.48
2018-08-16T16:38:41.402Z,32.30
2018-08-16T16:39:41.251Z,32.12
2018-08-16T16:41:34.270Z,31.89
2018-08-16T16:42:34.243Z,31.84
2018-08-16T16:44:29.607Z,31.64
2018-08-16T16:45:27.065Z,31.87
2018-08-16T16:47:21.735Z,31.56
2018-08-16T16:48:20.104Z,31.51
2018-08-16T16:50:12.788Z,31.42
2018-08-16T16:51:12.743Z,31.52
2018-08-16T16:53:06.636Z,31.43
2018-08-16T16:54:06.545Z,31.40
2018-08-16T16:55:59.387Z,31.39
2018-08-16T16:56:59.348Z,31.42
2018-08-16T16:58:52.209Z,30.99
2018-08-16T16:59:52.152Z,31.00
2018-08-16T17:01:44.972Z,30.94
2018-08-16T17:02:44.944Z,30.96
2018-08-16T17:04:37.885Z,30.85
2018-08-16T17:05:38.191Z,30.69
2018-08-16T17:07:30.645Z,30.23
2018-08-16T17:08:30.614Z,30.37
2018-08-16T17:10:23.507Z,30.37
2018-08-16T17:11:23.408Z,30.43
2018-08-16T17:13:16.246Z,30.53
2018-08-16T17:14:16.244Z,30.47
2018-08-16T17:16:09.063Z,30.48
2018-08-16T17:17:09.028Z,30.25
2018-08-16T17:19:01.870Z,30.24
2018-08-16T17:20:01.823Z,30.16
2018-08-16T17:21:54.665Z,30.18
2018-08-16T17:22:54.634Z,30.28
2018-08-16T17:24:47.455Z,30.00
2018-08-16T17:25:47.424Z,30.12
2018-08-16T17:27:40.260Z,30.02
2018-08-16T17:28:40.270Z,29.81
2018-08-16T17:30:33.073Z,29.31
2018-08-16T17:31:33.029Z,29.34
2018-08-16T17:33:25.858Z,29.16
2018-08-16T17:34:25.836Z,29.13
2018-08-16T17:36:18.677Z,29.04
2018-08-16T17:37:18.634Z,29.08
2018-08-16T17:39:11.456Z,29.08
2018-08-16T17:40:11.436Z,29.07
2018-08-16T17:42:04.330Z,29.10
2018-08-16T17:43:04.230Z,29.04
2018-08-16T17:44:57.081Z,28.98
2018-08-16T17:45:57.035Z,29.05
2018-08-16T17:47:49.866Z,28.93
2018-08-16T17:48:49.833Z,28.96
2018-08-16T17:50:42.785Z,28.93
2018-08-16T17:51:42.742Z,28.85
2018-08-16T17:53:35.595Z,28.78
2018-08-16T17:54:35.545Z,28.79
2018-08-16T17:56:28.381Z,28.66
2018-08-16T17:57:28.340Z,28.52
2018-08-16T17:59:21.161Z,28.56
2018-08-16T18:00:21.137Z,28.54
2018-08-16T18:02:13.971Z,28.39
2018-08-16T18:03:13.932Z,28.33
2018-08-16T18:05:06.761Z,28.32
2018-08-16T18:06:06.736Z,28.32
2018-08-16T18:07:59.581Z,28.29
2018-08-16T18:08:59.533Z,28.19
2018-08-16T18:10:52.366Z,27.98
2018-08-16T18:11:52.336Z,27.92
2018-08-16T18:13:45.166Z,28.04
2018-08-16T18:14:45.131Z,28.02
2018-08-16T18:16:37.966Z,27.95
2018-08-16T18:17:37.922Z,28.01
2018-08-16T18:19:30.747Z,27.80
2018-08-16T18:20:30.717Z,27.80
2018-08-16T18:22:23.563Z,27.70
2018-08-16T18:23:23.533Z,27.73
2018-08-16T18:25:16.346Z,27.67
2018-08-16T18:26:16.306Z,27.64
2018-08-16T18:28:09.150Z,27.67
2018-08-16T18:29:09.101Z,27.60
2018-08-16T18:31:01.928Z,27.63
2018-08-16T18:32:01.897Z,27.54
2018-08-16T18:33:54.739Z,27.47